deformed-offering

Nearby METAR Reports

 

KNUQ - Moffett Nas/Mtn, California, USA
Distance from station: N 9mi, 14km
Updated: Thu, 21-Nov-2019 8:56am PST
NOT Current

 
Barometer: 29.86 inHg , 1011.2 hPa
2019/11/21 16:56 KNUQ 211656Z AUTO A2986 RMK AO2 SLP116 PWINO $
KSJC - San Jose, California, USA
Distance from station: NE 9mi, 14km
Updated: Mon, 09-Dec-2019 10:53am PST
Overcast
Overcast
 Wind from N
Wind: N 5 mph , 7 km/h
Temperature: 55°F , 13°C
Dew Point: 48°F , 9°C
Humidity: 77%
Barometer: 30.22 inHg , 1023.4 hPa
Clouds: Overcast
Visibility: 8 miles , 13 km
Cloud details: Few Clouds 100 ft
Mostly Cloudy 1000 ft
Overcast 1500 ft
2019/12/09 18:53 KSJC 091853Z 35004KT 8SM FEW001 BKN010 OVC015 13/09 A3022 RMK AO2 SLP232 T01330094
 
KRHV - San Jose/Reid, California, USA
Distance from station: ENE 12mi, 19km
Updated: Mon, 09-Dec-2019 6:47am PST
NOT Current
Mist, Overcast
Mist, Overcast
 Wind from calm
Wind: Calm
Temperature: 54°F , 12°C
Dew Point: 48°F , 9°C
Humidity: 82%
Barometer: 30.18 inHg , 1022 hPa
Summary: Mist
Clouds: Overcast
Visibility: 5 miles , 8 km
Cloud details: Overcast 1500 ft
2019/12/09 14:47 KRHV 091447Z 00000KT 5SM BR OVC015 12/09 A3018
KPAO - Palo Alto, California, USA
Distance from station: NNW 14mi, 23km
Updated: Mon, 09-Dec-2019 8:47am PST
NOT Current
Mist, Overcast
Mist, Overcast
 Wind from varies
Wind: varies 5 mph , 7 km/h
Temperature: 52°F , 11°C
Dew Point: 50°F , 10°C
Humidity: 94%
Barometer: 30.21 inHg , 1023 hPa
Summary: Mist
Clouds: Overcast
Visibility: 3 miles , 5 km
Cloud details: Overcast 700 ft
2019/12/09 16:47 KPAO 091647Z VRB04KT 3SM BR OVC007 11/10 A3021
 
KSQL - San Carlos Airpo, California, USA
Distance from station: NW 21mi, 34km
Updated: Mon, 09-Dec-2019 10:48am PST
Overcast
Overcast
 Wind from varies
Wind: varies 5 mph , 7 km/h
Temperature: 54°F , 12°C
Dew Point: 54°F , 12°C
Humidity: 100%
Barometer: 30.23 inHg , 1023.7 hPa
Clouds: Overcast
Visibility: 4 miles , 6 km
Cloud details: Mostly Cloudy 600 ft
Overcast 1600 ft
2019/12/09 18:48 KSQL 091848Z VRB04KT 4SM BKN006 OVC016 12/12 A3023
KE16 - San Martin, California, USA
Distance from station: ESE 27mi, 43km
Updated: Thu, 14-Nov-2019 1:35am PST
NOT Current
Overcast
Overcast
 Wind from SE
Wind: SE 7 mph , 11 km/h
Temperature: 54°F , 12°C
Dew Point: 50°F , 10°C
Humidity: 88%
Barometer: 30.05 inHg , 1017.6 hPa
Clouds: Overcast
Visibility: 10 miles , 16 km
Cloud details: Overcast 1400 ft
2019/11/14 09:35 KE16 140935Z AUTO 13006KT 10SM OVC014 12/10 A3005 RMK AO2
 
KWVI - Watsonville, California, USA
Distance from station: SSE 27mi, 44km
Updated: Mon, 09-Dec-2019 10:53am PST
Overcast
Overcast
 Wind from SW
Wind: SW 3 mph , 6 km/h
Temperature: 55°F , 13°C
Dew Point: 52°F , 11°C
Humidity: 88%
Barometer: 30.22 inHg , 1023.4 hPa
Clouds: Overcast
Visibility: 10 miles , 16 km
Cloud details: Overcast 2000 ft
2019/12/09 18:53 KWVI 091853Z AUTO 22003KT 10SM OVC020 13/11 A3022 RMK AO2 SLP233 T01280106
KHWD - Hayward, California, USA
Distance from station: N 28mi, 44km
Updated: Mon, 09-Dec-2019 11:01am PST
Overcast
Overcast
 Wind from calm
Wind: Calm
Temperature: 54°F , 12°C
Dew Point: 52°F , 11°C
Humidity: 94%
Barometer: 30.22 inHg , 1023.4 hPa
Clouds: Overcast
Visibility: 8 miles , 13 km
Cloud details: Overcast 500 ft
2019/12/09 19:01 KHWD 091901Z 00000KT 8SM OVC005 12/11 A3022 RMK AO2 T01170106
 
KSFO - San Francisco, California, USA
Distance from station: NW 30mi, 49km
Updated: Mon, 09-Dec-2019 10:56am PST
Overcast
Overcast
 Wind from E
Wind: E 5 mph , 7 km/h
Temperature: 55°F , 13°C
Dew Point: 50°F , 10°C
Humidity: 82%
Barometer: 30.21 inHg , 1023 hPa
Clouds: Overcast
Visibility: 8 miles , 13 km
Cloud details: Few Clouds 300 ft
Mostly Cloudy 1000 ft
Overcast 1900 ft
2019/12/09 18:56 KSFO 091856Z 08004KT 8SM FEW003 BKN010 OVC019 13/10 A3021 RMK AO2 SLP230 T01280100
KHAF - Half Moon Bay, California, USA
Distance from station: WNW 31mi, 50km
Updated: Mon, 09-Dec-2019 10:55am PST
Overcast
Overcast
 Wind from NNW
Wind: NNW 6 mph , 9 km/h
Temperature: 55°F , 13°C
Dew Point: 54°F , 12°C
Humidity: 94%
Barometer: 30.22 inHg , 1023.4 hPa
Clouds: Overcast
Visibility: 9 miles , 14 km
Cloud details: Few Clouds 900 ft
Overcast 2100 ft
2019/12/09 18:55 KHAF 091855Z AUTO 33005KT 9SM FEW009 OVC021 13/12 A3022 RMK AO2
 
KOAK - Oakland, California, USA
Distance from station: NNW 31mi, 50km
Updated: Mon, 09-Dec-2019 10:53am PST
Mist, Overcast
Mist, Overcast
 Wind from ESE
Wind: ESE 5 mph , 7 km/h
Temperature: 55°F , 13°C
Dew Point: 52°F , 11°C
Humidity: 88%
Barometer: 30.23 inHg , 1023.7 hPa
Summary: Mist
Clouds: Overcast
Visibility: 4 miles , 6 km
Cloud details: Few Clouds 400 ft
Overcast 1200 ft
2019/12/09 18:53 KOAK 091853Z 12004KT 4SM BR FEW004 OVC012 13/11 A3023 RMK AO2 SLP237 T01280111
KLVK - Livermore, California, USA
Distance from station: NNE 31mi, 51km
Updated: Mon, 09-Dec-2019 10:53am PST
Fog, Overcast
Fog, Overcast
 Wind from calm
Wind: Calm
Temperature: 48°F , 9°C
Dew Point: 48°F , 9°C
Humidity: 100%
Barometer: 30.22 inHg , 1023.4 hPa
Summary: Fog
Clouds: Overcast
Visibility: 1/2 mile , 0.8 km
Cloud details: Overcast 200 ft
2019/12/09 18:53 KLVK 091853Z 00000KT 1/2SM FG OVC002 09/09 A3022 RMK AO2 SLP231 T00940094
 
KCVH - Hollister Muni, California, USA
Distance from station: SE 42mi, 68km
Updated: Mon, 09-Dec-2019 10:55am PST
Overcast
Overcast
 Wind from calm
Wind: Calm
Temperature: 55°F , 13°C
Dew Point: 50°F , 10°C
Humidity: 82%
Barometer: 30.22 inHg , 1023.4 hPa
Clouds: Overcast
Visibility: 10 miles , 16 km
Cloud details: Overcast 1700 ft
2019/12/09 18:55 KCVH 091855Z AUTO 00000KT 10SM OVC017 13/10 A3022 RMK A01
KSNS - Salinas, California, USA
Distance from station: SSE 48mi, 77km
Updated: Mon, 09-Dec-2019 10:53am PST
Mist, Overcast
Mist, Overcast
 Wind from ESE
Wind: ESE 6 mph , 9 km/h
Temperature: 48°F , 9°C
Wind Chill: 45°F , 7°C
Dew Point: 48°F , 9°C
Humidity: 100%
Barometer: 30.22 inHg , 1023.4 hPa
Summary: Mist
Clouds: Overcast
Visibility: 5 miles , 8 km
Cloud details: Overcast 300 ft
2019/12/09 18:53 KSNS 091853Z 12005KT 5SM BR OVC003 09/09 A3022 RMK AO2 SLP242 T00940089
 
KMRY - Monterey, California, USA
Distance from station: SSE 49mi, 78km
Updated: Mon, 09-Dec-2019 10:54am PST
Overcast
Overcast
 Wind from varies
Wind: varies 3 mph , 6 km/h
Temperature: 57°F , 14°C
Dew Point: 48°F , 9°C
Humidity: 72%
Barometer: 30.22 inHg , 1023.4 hPa
Clouds: Overcast
Visibility: 10 miles , 16 km
Cloud details: Overcast 1500 ft
2019/12/09 18:54 KMRY 091854Z VRB03KT 10SM OVC015 14/09 A3022 RMK AO2 SLP246 T01390094
KCCR - Concord, California, USA
Distance from station: N 50mi, 81km
Updated: Mon, 09-Dec-2019 10:53am PST
Partly Cloudy
Partly Cloudy
 Wind from calm
Wind: Calm
Temperature: 55°F , 13°C
Dew Point: 48°F , 9°C
Humidity: 77%
Barometer: 30.22 inHg , 1023.4 hPa
Clouds: Partly Cloudy
Visibility: 8 miles , 13 km
Cloud details: Partly Cloudy 500 ft
2019/12/09 18:53 KCCR 091853Z 00000KT 8SM SCT005 13/09 A3022 RMK AO2 SLP217 T01330094
deformed-offering